F/V Attalaya Berria — FHCB — position and weather

sailwx.info

Track history (hours):
 
Tides and Currents Weather Stations Pressure Air Temp Water Temp Dewpoint Dewpoint Depression Visibility Wind Speed Wind Dir Waves Ship Positions

F/V Attalaya Berria

Last reported at 2014-Aug-22 03:33 UTC. Time now 2014-Aug-22 13:49 UTC.
Position N 43°24' W 001°47'.

Length 26 m.

Type: Fishing. MMSI: 228315000.

Date/timePositionNaut miles runAvg speedWind from/ knotsBaromVisibWave heightAir tempDewpointWater temp
2014-Aug-22 03:33N 43°24' W 001°47'1 1.1
2014-Aug-22 02:33N 43°23' W 001°47'0 0.3
2014-Aug-22 01:33N 43°23' W 001°47'0 0.0
2014-Aug-21 15:06N 43°23' W 001°47'3 4.6
2014-Aug-21 14:33N 43°24' W 001°44'3 2.6
2014-Aug-21 13:33N 43°24' W 001°41'5 4.7
2014-Aug-21 12:32N 43°28' W 001°44'2 2.4
2014-Aug-21 11:33N 43°30' W 001°46'5 1.5
2014-Aug-21 08:26N 43°34' W 001°43'5 5.2
2014-Aug-21 07:32N 43°30' W 001°43'1 1.4
2014-Aug-21 06:33N 43°30' W 001°45'3 2.6
2014-Aug-21 05:33N 43°28' W 001°47'0 0.5
2014-Aug-21 04:31N 43°27' W 001°47'4 3.7
2014-Aug-21 03:33N 43°24' W 001°47'1 0.9
2014-Aug-21 02:33N 43°23' W 001°47'0 0.4
2014-Aug-21 01:34N 43°23' W 001°47'0 0.0
2014-Aug-21 00:34N 43°23' W 001°47'0 0.0
2014-Aug-20 23:33N 43°23' W 001°47'0 0.0
2014-Aug-20 22:33N 43°23' W 001°47'0 0.0
2014-Aug-20 21:34N 43°23' W 001°47'0 0.0
2014-Aug-20 20:33N 43°23' W 001°47'0 0.0
2014-Aug-20 19:34N 43°23' W 001°47'2 2.1
2014-Aug-20 18:32N 43°25' W 001°49'3 0.7
2014-Aug-20 14:27N 43°27' W 001°46'5 6.0
2014-Aug-20 13:33N 43°23' W 001°40'1 0.9
2014-Aug-20 12:33N 43°24' W 001°41'6 5.9
2014-Aug-20 11:33N 43°29' W 001°46'4 4.1
2014-Aug-20 10:32N 43°32' W 001°43'4 3.7
2014-Aug-20 09:33N 43°29' W 001°40'5 4.6
2014-Aug-20 08:28N 43°27' W 001°46'3 3.7
2014-Aug-20 07:32N 43°30' W 001°46'3 2.9
2014-Aug-20 06:32N 43°27' W 001°46'2 1.8
2014-Aug-20 05:33N 43°25' W 001°46'3 0.2
2014-Aug-19 17:18N 43°23' W 001°47'5 7.0
2014-Aug-19 16:33N 43°28' W 001°45'3 2.7
2014-Aug-19 15:31N 43°31' W 001°45'2 1.6
2014-Aug-19 14:25N 43°29' W 001°45'1 1.1
2014-Aug-19 13:07N 43°30' W 001°46'2 3.7
2014-Aug-19 12:33N 43°32' W 001°46'7 6.7
2014-Aug-19 11:33N 43°26' W 001°42'3 3.0
2014-Aug-19 10:33N 43°23' W 001°40'2 2.1
2014-Aug-19 09:33N 43°25' W 001°41'5 4.9
2014-Aug-19 08:27N 43°30' W 001°45'4 1.9
2014-Aug-19 06:33N 43°26' W 001°46'3 0.2
2014-Aug-18 15:33N 43°23' W 001°47'6 5.5
2014-Aug-18 14:33N 43°28' W 001°45'4 3.7
2014-Aug-18 13:33N 43°29' W 001°40'4 4.1
2014-Aug-18 12:33N 43°29' W 001°46'3 2.5
2014-Aug-18 11:33N 43°31' W 001°43'2 1.7
2014-Aug-18 10:32N 43°30' W 001°45'3 2.9
2014-Aug-18 09:31N 43°27' W 001°45'3 2.7
2014-Aug-18 08:33N 43°29' W 001°46'1 0.6
2014-Aug-18 07:32N 43°29' W 001°45'1 0.9
2014-Aug-18 06:33N 43°29' W 001°44'3 2.5
2014-Aug-18 05:29N 43°28' W 001°47'4 4.8
2014-Aug-18 04:33N 43°23' W 001°47'0 0.3
2014-Aug-18 03:33N 43°23' W 001°47'0 0.1
2014-Aug-18 02:33N 43°23' W 001°47'0 0.0
2014-Aug-18 01:34N 43°23' W 001°47'0 0.0
2014-Aug-18 00:33N 43°23' W 001°47'5 0.9
2014-Aug-17 18:33N 43°23' W 001°40'2 1.7
2014-Aug-17 17:33N 43°25' W 001°41'5 4.4
2014-Aug-17 16:22N 43°28' W 001°47'2 3.0
2014-Aug-17 15:34N 43°27' W 001°44'7 7.0
2014-Aug-17 14:32N 43°34' W 001°46'2 1.6
2014-Aug-17 13:31N 43°33' W 001°43'4 4.3
2014-Aug-17 12:33N 43°29' W 001°44'6 1.3
2014-Aug-17 08:10N 43°35' W 001°46'5 7.6
2014-Aug-17 07:29N 43°30' W 001°46'1 1.4
2014-Aug-17 06:33N 43°29' W 001°45'2 1.9
2014-Aug-17 05:33N 43°27' W 001°47'4 4.4
2014-Aug-17 04:33N 43°23' W 001°47'0 0.5
2014-Aug-17 03:34N 43°23' W 001°47'0 0.1
2014-Aug-17 02:33N 43°23' W 001°47'0 0.0
2014-Aug-17 01:33N 43°23' W 001°47'0 0.0
2014-Aug-17 00:33N 43°23' W 001°47'0 0.0
2014-Aug-16 23:33N 43°23' W 001°47'0 0.0
2014-Aug-16 22:34N 43°23' W 001°47'0 0.0
2014-Aug-16 21:34N 43°23' W 001°47'0 0.1
2014-Aug-16 20:33N 43°23' W 001°47'5 4.3
2014-Aug-16 19:31N 43°27' W 001°45'2 2.5
2014-Aug-16 18:33N 43°29' W 001°47'4 3.6
2014-Aug-16 17:26N 43°32' W 001°43'2 2.1
2014-Aug-16 16:33N 43°31' W 001°41'6 6.1
2014-Aug-16 15:30N 43°26' W 001°46'7 6.8
2014-Aug-16 14:26N 43°33' W 001°46'4 5.1
2014-Aug-16 13:33N 43°29' W 001°43'3 2.7
2014-Aug-16 12:34N 43°31' W 001°46'1 0.6
2014-Aug-16 11:33N 43°31' W 001°45'1 1.1
2014-Aug-16 10:33N 43°31' W 001°44'1 1.2
2014-Aug-16 09:33N 43°30' W 001°45'4 3.4
2014-Aug-16 08:31N 43°27' W 001°45'0 0.3
2014-Aug-16 07:33N 43°27' W 001°45'2 1.7
2014-Aug-16 06:27N 43°25' W 001°47'2 0.1
2014-Aug-15 05:05N 43°23' W 001°47'0 0.0
2014-Aug-15 04:33N 43°23' W 001°47'0 0.2
2014-Aug-15 03:33N 43°23' W 001°47'0 0.4
2014-Aug-15 02:33N 43°23' W 001°47'0 0.0
2014-Aug-15 01:33N 43°23' W 001°47'0 0.0
2014-Aug-15 00:33N 43°23' W 001°47'0 0.0
2014-Aug-14 23:33N 43°23' W 001°47'0 0.0
2014-Aug-14 22:33N 43°23' W 001°47'0 0.0
2014-Aug-14 21:33N 43°23' W 001°47'1 0.0
2014-Aug-12 18:33N 43°23' W 001°47'6 5.5
2014-Aug-12 17:33N 43°23' W 001°40'4 4.0
2014-Aug-12 16:33N 43°27' W 001°42'7 6.3
2014-Aug-12 15:28N 43°34' W 001°44'4 0.6
2014-Aug-12 09:18N 43°38' W 001°44'4 4.1
2014-Aug-12 08:15N 43°34' W 001°46'2 1.8
2014-Aug-12 07:16N 43°35' W 001°46'1 0.8
2014-Aug-12 06:19N 43°35' W 001°46'11 6.5
2014-Aug-12 04:33N 43°24' W 001°47'1 0.6
2014-Aug-12 03:33N 43°23' W 001°47'  
Track history (hours):
 
Tides and Currents Weather Stations Pressure Air Temp Water Temp Dewpoint Dewpoint Depression Visibility Wind Speed Wind Dir Waves Ship Positions

F/V Attalaya Berria

Last reported at 2014-Aug-22 03:33 UTC. Time now 2014-Aug-22 13:49 UTC.
Position N 43°24' W 001°47'.

Length 26 m.

Type: Fishing. MMSI: 228315000.

Date/timePositionNaut miles runAvg speedWind from/ knotsBaromVisibWave heightAir tempDewpointWater temp
2014-Aug-22 03:33N 43°24' W 001°47'1 1.1
2014-Aug-22 02:33N 43°23' W 001°47'0 0.3
2014-Aug-22 01:33N 43°23' W 001°47'0 0.0
2014-Aug-21 15:06N 43°23' W 001°47'3 4.6
2014-Aug-21 14:33N 43°24' W 001°44'3 2.6
2014-Aug-21 13:33N 43°24' W 001°41'5 4.7
2014-Aug-21 12:32N 43°28' W 001°44'2 2.4
2014-Aug-21 11:33N 43°30' W 001°46'5 1.5
2014-Aug-21 08:26N 43°34' W 001°43'5 5.2
2014-Aug-21 07:32N 43°30' W 001°43'1 1.4
2014-Aug-21 06:33N 43°30' W 001°45'3 2.6
2014-Aug-21 05:33N 43°28' W 001°47'0 0.5
2014-Aug-21 04:31N 43°27' W 001°47'4 3.7
2014-Aug-21 03:33N 43°24' W 001°47'1 0.9
2014-Aug-21 02:33N 43°23' W 001°47'0 0.4
2014-Aug-21 01:34N 43°23' W 001°47'0 0.0
2014-Aug-21 00:34N 43°23' W 001°47'0 0.0
2014-Aug-20 23:33N 43°23' W 001°47'0 0.0
2014-Aug-20 22:33N 43°23' W 001°47'0 0.0
2014-Aug-20 21:34N 43°23' W 001°47'0 0.0
2014-Aug-20 20:33N 43°23' W 001°47'0 0.0
2014-Aug-20 19:34N 43°23' W 001°47'2 2.1
2014-Aug-20 18:32N 43°25' W 001°49'3 0.7
2014-Aug-20 14:27N 43°27' W 001°46'5 6.0
2014-Aug-20 13:33N 43°23' W 001°40'1 0.9
2014-Aug-20 12:33N 43°24' W 001°41'6 5.9
2014-Aug-20 11:33N 43°29' W 001°46'4 4.1
2014-Aug-20 10:32N 43°32' W 001°43'4 3.7
2014-Aug-20 09:33N 43°29' W 001°40'5 4.6
2014-Aug-20 08:28N 43°27' W 001°46'3 3.7
2014-Aug-20 07:32N 43°30' W 001°46'3 2.9
2014-Aug-20 06:32N 43°27' W 001°46'2 1.8
2014-Aug-20 05:33N 43°25' W 001°46'3 0.2
2014-Aug-19 17:18N 43°23' W 001°47'5 7.0
2014-Aug-19 16:33N 43°28' W 001°45'3 2.7
2014-Aug-19 15:31N 43°31' W 001°45'2 1.6
2014-Aug-19 14:25N 43°29' W 001°45'1 1.1
2014-Aug-19 13:07N 43°30' W 001°46'2 3.7
2014-Aug-19 12:33N 43°32' W 001°46'7 6.7
2014-Aug-19 11:33N 43°26' W 001°42'3 3.0
2014-Aug-19 10:33N 43°23' W 001°40'2 2.1
2014-Aug-19 09:33N 43°25' W 001°41'5 4.9
2014-Aug-19 08:27N 43°30' W 001°45'4 1.9
2014-Aug-19 06:33N 43°26' W 001°46'3 0.2
2014-Aug-18 15:33N 43°23' W 001°47'6 5.5
2014-Aug-18 14:33N 43°28' W 001°45'4 3.7
2014-Aug-18 13:33N 43°29' W 001°40'4 4.1
2014-Aug-18 12:33N 43°29' W 001°46'3 2.5
2014-Aug-18 11:33N 43°31' W 001°43'2 1.7
2014-Aug-18 10:32N 43°30' W 001°45'3 2.9
2014-Aug-18 09:31N 43°27' W 001°45'3 2.7
2014-Aug-18 08:33N 43°29' W 001°46'1 0.6
2014-Aug-18 07:32N 43°29' W 001°45'1 0.9
2014-Aug-18 06:33N 43°29' W 001°44'3 2.5
2014-Aug-18 05:29N 43°28' W 001°47'4 4.8
2014-Aug-18 04:33N 43°23' W 001°47'0 0.3
2014-Aug-18 03:33N 43°23' W 001°47'0 0.1
2014-Aug-18 02:33N 43°23' W 001°47'0 0.0
2014-Aug-18 01:34N 43°23' W 001°47'0 0.0
2014-Aug-18 00:33N 43°23' W 001°47'5 0.9
2014-Aug-17 18:33N 43°23' W 001°40'2 1.7
2014-Aug-17 17:33N 43°25' W 001°41'5 4.4
2014-Aug-17 16:22N 43°28' W 001°47'2 3.0
2014-Aug-17 15:34N 43°27' W 001°44'7 7.0
2014-Aug-17 14:32N 43°34' W 001°46'2 1.6
2014-Aug-17 13:31N 43°33' W 001°43'4 4.3
2014-Aug-17 12:33N 43°29' W 001°44'6 1.3
2014-Aug-17 08:10N 43°35' W 001°46'5 7.6
2014-Aug-17 07:29N 43°30' W 001°46'1 1.4
2014-Aug-17 06:33N 43°29' W 001°45'2 1.9
2014-Aug-17 05:33N 43°27' W 001°47'4 4.4
2014-Aug-17 04:33N 43°23' W 001°47'0 0.5
2014-Aug-17 03:34N 43°23' W 001°47'0 0.1
2014-Aug-17 02:33N 43°23' W 001°47'0 0.0
2014-Aug-17 01:33N 43°23' W 001°47'0 0.0
2014-Aug-17 00:33N 43°23' W 001°47'0 0.0
2014-Aug-16 23:33N 43°23' W 001°47'0 0.0
2014-Aug-16 22:34N 43°23' W 001°47'0 0.0
2014-Aug-16 21:34N 43°23' W 001°47'0 0.1
2014-Aug-16 20:33N 43°23' W 001°47'5 4.3
2014-Aug-16 19:31N 43°27' W 001°45'2 2.5
2014-Aug-16 18:33N 43°29' W 001°47'4 3.6
2014-Aug-16 17:26N 43°32' W 001°43'2 2.1
2014-Aug-16 16:33N 43°31' W 001°41'6 6.1
2014-Aug-16 15:30N 43°26' W 001°46'7 6.8
2014-Aug-16 14:26N 43°33' W 001°46'4 5.1
2014-Aug-16 13:33N 43°29' W 001°43'3 2.7
2014-Aug-16 12:34N 43°31' W 001°46'1 0.6
2014-Aug-16 11:33N 43°31' W 001°45'1 1.1
2014-Aug-16 10:33N 43°31' W 001°44'1 1.2
2014-Aug-16 09:33N 43°30' W 001°45'4 3.4
2014-Aug-16 08:31N 43°27' W 001°45'0 0.3
2014-Aug-16 07:33N 43°27' W 001°45'2 1.7
2014-Aug-16 06:27N 43°25' W 001°47'2 0.1
2014-Aug-15 05:05N 43°23' W 001°47'0 0.0
2014-Aug-15 04:33N 43°23' W 001°47'0 0.2
2014-Aug-15 03:33N 43°23' W 001°47'0 0.4
2014-Aug-15 02:33N 43°23' W 001°47'0 0.0
2014-Aug-15 01:33N 43°23' W 001°47'0 0.0
2014-Aug-15 00:33N 43°23' W 001°47'0 0.0
2014-Aug-14 23:33N 43°23' W 001°47'0 0.0
2014-Aug-14 22:33N 43°23' W 001°47'0 0.0
2014-Aug-14 21:33N 43°23' W 001°47'1 0.0
2014-Aug-12 18:33N 43°23' W 001°47'6 5.5
2014-Aug-12 17:33N 43°23' W 001°40'4 4.0
2014-Aug-12 16:33N 43°27' W 001°42'7 6.3
2014-Aug-12 15:28N 43°34' W 001°44'4 0.6
2014-Aug-12 09:18N 43°38' W 001°44'4 4.1
2014-Aug-12 08:15N 43°34' W 001°46'2 1.8
2014-Aug-12 07:16N 43°35' W 001°46'1 0.8
2014-Aug-12 06:19N 43°35' W 001°46'11 6.5
2014-Aug-12 04:33N 43°24' W 001°47'1 0.6
2014-Aug-12 03:33N 43°23' W 001°47'  

Dump ship's entire track history